Time,TemperatureF,DewpointF,PressureIn,WindDirection,WindDirectionDegrees,WindSpeedMPH,WindSpeedGustMPH,Humidity,HourlyPrecipIn,Conditions,Clouds,dailyrainin,SolarRadiationWatts/m^2,SoftwareType,DateUTC
2013-01-09 00:02:00,40.0,33.0,-100.00,SSW,197,5.0,13.0,73,-99.99,,,0.00,0.000000,,2013-01-09 08:02:00,
2013-01-09 00:12:00,40.0,33.0,-100.00,SSW,197,5.0,13.0,73,-99.99,,,0.00,0.000000,,2013-01-09 08:12:00,
2013-01-09 00:42:00,41.0,32.0,-100.00,South,190,4.0,10.0,71,-99.99,,,0.00,0.000000,,2013-01-09 08:42:00,
2013-01-09 00:53:00,41.0,32.0,-100.00,South,190,4.0,10.0,71,-99.99,,,0.00,0.000000,,2013-01-09 08:53:00,
2013-01-09 01:02:00,41.0,32.0,-100.00,South,190,4.0,10.0,71,-99.99,,,0.00,0.000000,,2013-01-09 09:02:00,
2013-01-09 01:11:00,41.0,32.0,-100.00,South,190,4.0,10.0,71,-99.99,,,0.00,0.000000,,2013-01-09 09:11:00,
2013-01-09 01:42:00,41.0,32.0,-100.00,SSW,200,6.0,13.0,69,-99.99,,,0.00,0.000000,,2013-01-09 09:42:00,
2013-01-09 01:53:00,41.0,32.0,-100.00,SSW,200,6.0,13.0,69,-99.99,,,0.00,0.000000,,2013-01-09 09:53:00,
2013-01-09 02:02:00,41.0,32.0,-100.00,SSW,200,6.0,13.0,69,-99.99,,,0.00,0.000000,,2013-01-09 10:02:00,
2013-01-09 02:11:00,41.0,32.0,-100.00,SSW,200,6.0,13.0,69,-99.99,,,0.00,0.000000,,2013-01-09 10:11:00,
2013-01-09 02:42:00,43.0,32.0,-100.00,SSW,206,7.0,14.0,64,-99.99,,,0.00,0.000000,,2013-01-09 10:42:00,
2013-01-09 02:52:00,43.0,32.0,-100.00,SSW,206,7.0,14.0,64,-99.99,,,0.00,0.000000,,2013-01-09 10:52:00,
2013-01-09 03:02:00,43.0,32.0,-100.00,SSW,206,7.0,14.0,64,-99.99,,,0.00,0.000000,,2013-01-09 11:02:00,
2013-01-09 03:11:00,43.0,32.0,-100.00,SSW,206,7.0,14.0,64,-99.99,,,0.00,0.000000,,2013-01-09 11:11:00,
2013-01-09 03:42:00,42.0,32.0,-100.00,SSW,210,6.0,13.0,66,-99.99,,,0.00,0.000000,,2013-01-09 11:42:00,
2013-01-09 03:53:00,42.0,32.0,-100.00,SSW,210,6.0,13.0,66,-99.99,,,0.00,0.000000,,2013-01-09 11:53:00,
2013-01-09 04:03:00,42.0,32.0,-100.00,SSW,210,6.0,13.0,66,-99.99,,,0.00,0.000000,,2013-01-09 12:03:00,
2013-01-09 04:12:00,42.0,32.0,-100.00,SSW,210,6.0,13.0,66,-99.99,,,0.00,0.000000,,2013-01-09 12:12:00,
2013-01-09 04:42:00,44.0,32.0,-100.00,SSW,213,3.0,8.0,63,-99.99,,,0.00,0.000000,,2013-01-09 12:42:00,
2013-01-09 04:53:00,44.0,32.0,-100.00,SSW,213,3.0,8.0,63,-99.99,,,0.00,0.000000,,2013-01-09 12:53:00,
2013-01-09 05:02:00,44.0,32.0,-100.00,SSW,213,3.0,8.0,63,-99.99,,,0.00,0.000000,,2013-01-09 13:02:00,
2013-01-09 05:12:00,44.0,32.0,-100.00,SSW,213,3.0,8.0,63,-99.99,,,0.00,0.000000,,2013-01-09 13:12:00,
2013-01-09 05:33:00,46.0,30.0,-100.00,SW,214,8.0,20.0,53,-99.99,,,0.00,0.000000,,2013-01-09 13:33:00,
2013-01-09 05:42:00,46.0,30.0,-100.00,SW,214,8.0,20.0,53,-99.99,,,0.00,0.000000,,2013-01-09 13:42:00,
2013-01-09 05:53:00,46.0,30.0,-100.00,SW,214,8.0,20.0,53,-99.99,,,0.00,0.000000,,2013-01-09 13:53:00,
2013-01-09 06:02:00,46.0,30.0,-100.00,SW,214,8.0,20.0,53,-99.99,,,0.00,0.000000,,2013-01-09 14:02:00,
2013-01-09 06:12:00,46.0,30.0,-100.00,SW,214,8.0,20.0,53,-99.99,,,0.00,0.000000,,2013-01-09 14:12:00,
2013-01-09 06:43:00,45.0,30.0,-100.00,SSW,194,7.0,14.0,55,-99.99,,,0.00,0.000000,,2013-01-09 14:43:00,
2013-01-09 06:53:00,45.0,30.0,-100.00,SSW,194,7.0,14.0,55,-99.99,,,0.00,0.000000,,2013-01-09 14:53:00,
2013-01-09 07:03:00,45.0,30.0,-100.00,SSW,194,7.0,14.0,55,-99.99,,,0.00,0.000000,,2013-01-09 15:03:00,
2013-01-09 07:12:00,45.0,30.0,-100.00,SSW,194,7.0,14.0,55,-99.99,,,0.00,0.000000,,2013-01-09 15:12:00,
2013-01-09 07:33:00,44.0,31.0,-100.00,SSW,194,8.0,18.0,58,-99.99,,,0.00,0.000000,,2013-01-09 15:33:00,
2013-01-09 07:42:00,44.0,31.0,-100.00,SSW,194,8.0,18.0,58,-99.99,,,0.00,0.000000,,2013-01-09 15:42:00,
2013-01-09 07:53:00,44.0,31.0,-100.00,SSW,194,8.0,18.0,58,-99.99,,,0.00,0.000000,,2013-01-09 15:53:00,
2013-01-09 08:03:00,44.0,31.0,-100.00,SSW,194,8.0,18.0,58,-99.99,,,0.00,0.000000,,2013-01-09 16:03:00,
2013-01-09 08:12:00,44.0,31.0,-100.00,SSW,194,8.0,18.0,58,-99.99,,,0.00,0.000000,,2013-01-09 16:12:00,
2013-01-09 08:42:00,44.0,31.0,-100.00,SSW,203,7.0,17.0,59,-99.99,,,0.00,13.480000,,2013-01-09 16:42:00,
2013-01-09 08:53:00,44.0,31.0,-100.00,SSW,203,7.0,17.0,59,-99.99,,,0.00,13.480000,,2013-01-09 16:53:00,
2013-01-09 09:02:00,44.0,31.0,-100.00,SSW,203,7.0,17.0,59,-99.99,,,0.00,13.480000,,2013-01-09 17:02:00,
2013-01-09 09:12:00,44.0,31.0,-100.00,SSW,203,7.0,17.0,59,-99.99,,,0.00,13.480000,,2013-01-09 17:12:00,
2013-01-09 09:43:00,44.0,31.0,-100.00,SSW,203,6.0,14.0,60,-99.99,,,0.00,44.400002,,2013-01-09 17:43:00,
2013-01-09 09:53:00,44.0,31.0,-100.00,SSW,203,6.0,14.0,60,-99.99,,,0.00,44.400002,,2013-01-09 17:53:00,
2013-01-09 10:03:00,44.0,31.0,-100.00,SSW,203,6.0,14.0,60,-99.99,,,0.00,44.400002,,2013-01-09 18:03:00,
2013-01-09 10:12:00,44.0,31.0,-100.00,SSW,203,6.0,14.0,60,-99.99,,,0.00,44.400002,,2013-01-09 18:12:00,
2013-01-09 10:33:00,43.0,33.0,-100.00,SW,226,4.0,14.0,68,-99.99,,,0.00,64.500000,,2013-01-09 18:33:00,
2013-01-09 10:43:00,43.0,33.0,-100.00,SW,226,4.0,14.0,68,-99.99,,,0.00,64.500000,,2013-01-09 18:43:00,
2013-01-09 10:53:00,43.0,33.0,-100.00,SW,226,4.0,14.0,68,-99.99,,,0.00,64.500000,,2013-01-09 18:53:00,
2013-01-09 11:02:00,43.0,33.0,-100.00,SW,226,4.0,14.0,68,-99.99,,,0.00,64.500000,,2013-01-09 19:02:00,
2013-01-09 11:12:00,43.0,33.0,-100.00,SW,226,4.0,14.0,68,-99.99,,,0.00,64.500000,,2013-01-09 19:12:00,
2013-01-09 12:42:00,40.0,28.0,-100.00,SW,216,3.0,7.0,61,-99.99,,,0.00,145.279999,,2013-01-09 20:42:00,
2013-01-09 12:53:00,40.0,28.0,-100.00,SW,216,3.0,7.0,61,-99.99,,,0.00,145.279999,,2013-01-09 20:53:00,
2013-01-09 13:02:00,40.0,28.0,-100.00,SW,216,3.0,7.0,61,-99.99,,,0.00,145.279999,,2013-01-09 21:02:00,
2013-01-09 13:12:00,40.0,28.0,-100.00,SW,216,3.0,7.0,61,-99.99,,,0.00,145.279999,,2013-01-09 21:12:00,
2013-01-09 13:43:00,38.0,29.0,-100.00,SW,219,4.0,12.0,68,-99.99,,,0.00,117.150002,,2013-01-09 21:43:00,
2013-01-09 13:53:00,38.0,29.0,-100.00,SW,219,4.0,12.0,68,-99.99,,,0.00,117.150002,,2013-01-09 21:53:00,
2013-01-09 14:03:00,38.0,29.0,-100.00,SW,219,4.0,12.0,68,-99.99,,,0.00,117.150002,,2013-01-09 22:03:00,
2013-01-09 14:12:00,38.0,29.0,-100.00,SW,219,4.0,12.0,68,-99.99,,,0.00,117.150002,,2013-01-09 22:12:00,
2013-01-09 14:42:00,37.0,27.0,-100.00,WSW,245,3.0,10.0,64,-99.99,,,0.00,104.949997,,2013-01-09 22:42:00,
2013-01-09 14:52:00,37.0,27.0,-100.00,WSW,245,3.0,10.0,64,-99.99,,,0.00,104.949997,,2013-01-09 22:52:00,
2013-01-09 15:02:00,37.0,27.0,-100.00,WSW,245,3.0,10.0,64,-99.99,,,0.00,104.949997,,2013-01-09 23:02:00,
2013-01-09 15:12:00,37.0,27.0,-100.00,WSW,245,3.0,10.0,64,-99.99,,,0.00,104.949997,,2013-01-09 23:12:00,
2013-01-09 15:42:00,36.0,24.0,-100.00,NNW,336,3.0,9.0,62,-99.99,,,0.00,67.519997,,2013-01-09 23:42:00,
2013-01-09 15:53:00,36.0,24.0,-100.00,NNW,336,3.0,9.0,62,-99.99,,,0.00,67.519997,,2013-01-09 23:53:00,
2013-01-09 16:02:00,36.0,24.0,-100.00,NNW,336,3.0,9.0,62,-99.99,,,0.00,67.519997,,2013-01-10 00:02:00,
2013-01-09 16:12:00,36.0,24.0,-100.00,NNW,336,3.0,9.0,62,-99.99,,,0.00,67.519997,,2013-01-10 00:12:00,
2013-01-09 16:42:00,33.0,25.0,-100.00,NNW,335,2.0,6.0,73,-99.99,,,0.00,22.900000,,2013-01-10 00:42:00,
2013-01-09 16:53:00,33.0,25.0,-100.00,NNW,335,2.0,6.0,73,-99.99,,,0.00,22.900000,,2013-01-10 00:53:00,
2013-01-09 17:02:00,33.0,25.0,-100.00,NNW,335,2.0,6.0,73,-99.99,,,0.00,22.900000,,2013-01-10 01:02:00,
2013-01-09 17:12:00,33.0,25.0,-100.00,NNW,335,2.0,6.0,73,-99.99,,,0.00,22.900000,,2013-01-10 01:12:00,
2013-01-09 17:42:00,33.0,23.0,-100.00,NNW,339,4.0,9.0,67,-99.99,,,0.00,0.120000,,2013-01-10 01:42:00,
2013-01-09 17:53:00,33.0,23.0,-100.00,NNW,339,4.0,9.0,67,-99.99,,,0.00,0.120000,,2013-01-10 01:53:00,
2013-01-09 18:02:00,33.0,23.0,-100.00,NNW,339,4.0,9.0,67,-99.99,,,0.00,0.120000,,2013-01-10 02:02:00,
2013-01-09 18:12:00,33.0,23.0,-100.00,NNW,339,4.0,9.0,67,-99.99,,,0.00,0.120000,,2013-01-10 02:12:00,
2013-01-09 19:02:00,30.0,23.0,-100.00,NNW,347,3.0,6.0,75,-99.99,,,0.00,0.000000,,2013-01-10 03:02:00,
2013-01-09 19:11:00,30.0,23.0,-100.00,NNW,347,3.0,6.0,75,-99.99,,,0.00,0.000000,,2013-01-10 03:11:00,
2013-01-09 19:42:00,30.0,23.0,-100.00,East,88,1.0,5.0,77,-99.99,,,0.00,0.000000,,2013-01-10 03:42:00,
2013-01-09 19:52:00,30.0,23.0,-100.00,East,88,1.0,5.0,77,-99.99,,,0.00,0.000000,,2013-01-10 03:52:00,
2013-01-09 20:02:00,30.0,23.0,-100.00,East,88,1.0,5.0,77,-99.99,,,0.00,0.000000,,2013-01-10 04:02:00,
2013-01-09 20:12:00,30.0,23.0,-100.00,East,88,1.0,5.0,77,-99.99,,,0.00,0.000000,,2013-01-10 04:12:00,
2013-01-09 20:42:00,29.0,21.0,-100.00,NNW,345,1.0,2.0,71,-99.99,,,0.00,0.000000,,2013-01-10 04:42:00,
2013-01-09 20:52:00,29.0,21.0,-100.00,NNW,345,1.0,2.0,71,-99.99,,,0.00,0.000000,,2013-01-10 04:52:00,
2013-01-09 21:03:00,29.0,21.0,-100.00,NNW,345,1.0,2.0,71,-99.99,,,0.00,0.000000,,2013-01-10 05:03:00,
2013-01-09 21:12:00,29.0,21.0,-100.00,NNW,345,1.0,2.0,71,-99.99,,,0.00,0.000000,,2013-01-10 05:12:00,
2013-01-09 21:42:00,28.0,20.0,-100.00,NW,311,1.0,2.0,72,-99.99,,,0.00,0.000000,,2013-01-10 05:42:00,
2013-01-09 21:53:00,28.0,20.0,-100.00,NW,311,1.0,2.0,72,-99.99,,,0.00,0.000000,,2013-01-10 05:53:00,
2013-01-09 22:02:00,28.0,20.0,-100.00,NW,311,1.0,2.0,72,-99.99,,,0.00,0.000000,,2013-01-10 06:02:00,
2013-01-09 22:11:00,28.0,20.0,-100.00,NW,311,1.0,2.0,72,-99.99,,,0.00,0.000000,,2013-01-10 06:11:00,
2013-01-09 22:32:00,27.0,21.0,-100.00,SSW,196,0.0,1.0,77,-99.99,,,0.00,0.000000,,2013-01-10 06:32:00,
2013-01-09 22:42:00,27.0,21.0,-100.00,SSW,196,0.0,1.0,77,-99.99,,,0.00,0.000000,,2013-01-10 06:42:00,
2013-01-09 22:52:00,27.0,21.0,-100.00,SSW,196,0.0,1.0,77,-99.99,,,0.00,0.000000,,2013-01-10 06:52:00,
2013-01-09 23:02:00,27.0,21.0,-100.00,SSW,196,0.0,1.0,77,-99.99,,,0.00,0.000000,,2013-01-10 07:02:00,
2013-01-09 23:11:00,27.0,21.0,-100.00,SSW,196,0.0,1.0,77,-99.99,,,0.00,0.000000,,2013-01-10 07:11:00,
2013-01-09 23:42:00,26.0,21.0,-100.00,SSW,197,0.0,2.0,80,-99.99,,,0.00,0.000000,,2013-01-10 07:42:00,
2013-01-09 23:52:00,26.0,21.0,-100.00,SSW,197,0.0,2.0,80,-99.99,,,0.00,0.000000,,2013-01-10 07:52:00,